createdAt,value
2023-05-08T00:01:34.466Z,102263.19
2023-05-08T00:03:36.133Z,102264.41
2023-05-08T00:05:37.944Z,102263.66
2023-05-08T00:07:39.388Z,102267.16
2023-05-08T00:09:40.796Z,102261.25
2023-05-08T00:11:42.389Z,102264.22
2023-05-08T00:13:43.797Z,102265.16
2023-05-08T00:15:45.349Z,102256.34
2023-05-08T00:17:47.390Z,102265.28
2023-05-08T00:19:48.905Z,102262.75
2023-05-08T00:21:50.326Z,102264.56
2023-05-08T00:23:51.936Z,102274.22
2023-05-08T00:25:53.360Z,102271.31
2023-05-08T00:27:54.783Z,102270.66
2023-05-08T00:29:56.215Z,102271.72
2023-05-08T00:31:57.704Z,102278.03
2023-05-08T00:33:59.220Z,102273.75
2023-05-08T00:36:02.373Z,102275.59
2023-05-08T00:38:03.805Z,102276.31
2023-05-08T00:40:05.904Z,102278.94
2023-05-08T00:42:07.735Z,102274.50
2023-05-08T00:44:09.215Z,102279.59
2023-05-08T00:46:11.447Z,102269.47
2023-05-08T00:48:13.110Z,102285.69
2023-05-08T00:50:14.911Z,102270.41
2023-05-08T00:52:17.569Z,102291.16
2023-05-08T00:54:19.545Z,102288.66
2023-05-08T00:56:23.677Z,102292.72
2023-05-08T00:58:27.008Z,102293.44
2023-05-08T01:00:29.123Z,102294.31
2023-05-08T01:02:31.488Z,102276.03
2023-05-08T01:04:34.893Z,102296.72
2023-05-08T01:06:37.289Z,102287.47
2023-05-08T01:08:39.069Z,102303.16
2023-05-08T01:10:48.092Z,102300.19
2023-05-08T01:13:26.885Z,102305.44
2023-05-08T01:15:38.412Z,102297.97
2023-05-08T01:17:48.892Z,102306.38
2023-05-08T01:20:03.350Z,102308.09
2023-05-08T01:22:29.260Z,102315.00
2023-05-08T01:25:16.528Z,102313.41
2023-05-08T01:27:42.270Z,102321.59
2023-05-08T01:30:21.996Z,102320.78
2023-05-08T01:32:30.039Z,102309.34
2023-05-08T01:34:33.244Z,102318.41
2023-05-08T01:36:52.101Z,102318.59
2023-05-08T01:39:10.541Z,102328.19
2023-05-08T01:41:18.429Z,102325.59
2023-05-08T01:43:30.186Z,102331.03
2023-05-08T01:45:44.871Z,102330.38
2023-05-08T01:47:51.783Z,102333.47
2023-05-08T01:50:21.088Z,102339.44
2023-05-08T01:52:34.443Z,102334.94
2023-05-08T01:54:55.475Z,102333.16
2023-05-08T01:56:59.516Z,102345.34
2023-05-08T01:59:02.335Z,102349.63
2023-05-08T02:01:04.850Z,102339.19
2023-05-08T02:03:08.630Z,102347.91
2023-05-08T02:05:10.960Z,102345.19
2023-05-08T02:07:12.659Z,102349.53
2023-05-08T02:09:15.309Z,102343.72
2023-05-08T02:11:18.308Z,102344.44
2023-05-08T02:13:21.857Z,102343.66
2023-05-08T02:15:25.939Z,102345.59
2023-05-08T02:17:28.900Z,102346.72
2023-05-08T02:19:31.422Z,102339.69
2023-05-08T02:21:33.984Z,102341.47
2023-05-08T02:23:36.057Z,102343.22
2023-05-08T02:25:38.963Z,102347.56
2023-05-08T02:27:43.499Z,102352.66
2023-05-08T02:29:45.044Z,102352.56
2023-05-08T02:31:48.151Z,102348.84
2023-05-08T02:33:51.828Z,102353.31
2023-05-08T02:35:54.477Z,102354.88
2023-05-08T02:37:57.116Z,102360.06
2023-05-08T02:39:58.988Z,102353.78
2023-05-08T02:42:00.626Z,102361.59
2023-05-08T02:44:02.242Z,102361.28
2023-05-08T02:46:21.041Z,102361.16
2023-05-08T02:48:33.299Z,102353.41
2023-05-08T02:50:48.536Z,102362.19
2023-05-08T02:52:54.384Z,102359.72
2023-05-08T02:55:08.688Z,102370.25
2023-05-08T02:57:28.627Z,102367.03
2023-05-08T02:59:42.364Z,102365.47
2023-05-08T03:02:02.291Z,102352.06
2023-05-08T03:04:07.620Z,102360.22
2023-05-08T03:06:26.346Z,102366.34
2023-05-08T03:08:30.959Z,102361.94
2023-05-08T03:10:35.129Z,102369.16
2023-05-08T03:12:42.789Z,102367.63
2023-05-08T03:14:54.810Z,102368.91
2023-05-08T03:16:59.067Z,102371.88
2023-05-08T03:19:03.806Z,102377.91
2023-05-08T03:21:07.255Z,102376.00
2023-05-08T03:23:10.094Z,102387.75
2023-05-08T03:25:14.139Z,102379.78
2023-05-08T03:27:16.783Z,102382.50
2023-05-08T03:29:19.752Z,102383.19
2023-05-08T03:31:23.017Z,102386.72
2023-05-08T03:33:25.519Z,102385.59
2023-05-08T03:35:27.718Z,102377.38
2023-05-08T03:37:29.645Z,102381.41
2023-05-08T03:39:31.319Z,102383.56
2023-05-08T03:41:32.922Z,102377.38
2023-05-08T03:43:36.743Z,102376.34
2023-05-08T03:45:40.555Z,102375.13
2023-05-08T03:47:44.318Z,102387.03
2023-05-08T03:49:47.578Z,102380.19
2023-05-08T03:51:49.773Z,102375.59
2023-05-08T03:53:51.184Z,102370.13
2023-05-08T03:55:52.697Z,102368.63
2023-05-08T03:58:04.516Z,102382.38
2023-05-08T04:00:24.632Z,102379.50
2023-05-08T04:02:50.557Z,102390.81
2023-05-08T04:05:00.551Z,102388.53
2023-05-08T04:07:34.778Z,102392.56
2023-05-08T04:09:41.708Z,102387.41
2023-05-08T04:11:52.294Z,102387.56
2023-05-08T04:14:00.660Z,102393.91
2023-05-08T04:16:15.836Z,102397.31
2023-05-08T04:18:22.181Z,102402.19
2023-05-08T04:20:27.154Z,102402.59
2023-05-08T04:22:31.731Z,102411.47
2023-05-08T04:24:37.119Z,102411.69
2023-05-08T04:26:39.739Z,102408.38
2023-05-08T04:28:41.544Z,102415.97
2023-05-08T04:30:43.093Z,102408.22
2023-05-08T04:32:46.631Z,102365.34
2023-05-08T04:34:48.943Z,102411.72
2023-05-08T04:36:50.488Z,102419.56
2023-05-08T04:38:51.957Z,102420.25
2023-05-08T04:40:53.526Z,102423.44
2023-05-08T04:42:55.485Z,102426.66
2023-05-08T04:44:56.888Z,102425.84
2023-05-08T04:46:58.393Z,102426.03
2023-05-08T04:48:59.901Z,102421.84
2023-05-08T04:51:01.297Z,102423.94
2023-05-08T04:53:02.974Z,102415.69
2023-05-08T04:55:05.044Z,102428.16
2023-05-08T04:57:06.455Z,102429.94
2023-05-08T04:59:08.019Z,102439.19
2023-05-08T05:01:09.714Z,102437.72
2023-05-08T05:03:11.315Z,102438.53
2023-05-08T05:05:13.195Z,102441.09
2023-05-08T05:07:15.037Z,102433.44
2023-05-08T05:09:16.465Z,102446.50
2023-05-08T05:11:18.115Z,102438.06
2023-05-08T05:13:19.706Z,102439.38
2023-05-08T05:15:21.135Z,102443.56
2023-05-08T05:17:23.221Z,102437.00
2023-05-08T05:19:24.850Z,102444.59
2023-05-08T05:21:26.307Z,102438.91
2023-05-08T05:23:27.912Z,102443.44
2023-05-08T05:25:29.410Z,102445.72
2023-05-08T05:27:30.923Z,102444.44
2023-05-08T05:29:32.456Z,102448.25
2023-05-08T05:31:33.995Z,102441.72
2023-05-08T05:33:35.552Z,102433.03
2023-05-08T05:35:37.112Z,102444.72
2023-05-08T05:37:38.771Z,102431.19
2023-05-08T05:39:40.174Z,102441.75
2023-05-08T05:41:41.674Z,102442.44
2023-05-08T05:43:43.152Z,102452.50
2023-05-08T05:45:44.580Z,102455.28
2023-05-08T05:47:46.657Z,102436.44
2023-05-08T05:49:48.356Z,102425.84
2023-05-08T05:51:49.730Z,102446.44
2023-05-08T05:53:51.161Z,102435.72
2023-05-08T05:55:52.543Z,102445.13
2023-05-08T05:57:53.954Z,102446.94
2023-05-08T05:59:55.347Z,102454.50
2023-05-08T06:01:57.005Z,102440.22
2023-05-08T06:03:58.491Z,102453.31
2023-05-08T06:06:00.035Z,102452.06
2023-05-08T06:08:01.644Z,102440.22
2023-05-08T06:10:03.111Z,102457.69
2023-05-08T06:12:04.574Z,102442.75
2023-05-08T06:14:06.169Z,102456.28
2023-05-08T06:16:07.987Z,102446.38
2023-05-08T06:18:09.672Z,102459.06
2023-05-08T06:20:11.364Z,102459.75
2023-05-08T06:22:12.844Z,102464.88
2023-05-08T06:24:14.364Z,102456.28
2023-05-08T06:26:15.792Z,102462.22
2023-05-08T06:28:17.774Z,102449.91
2023-05-08T06:30:19.460Z,102461.88
2023-05-08T06:32:21.061Z,102458.44
2023-05-08T06:34:22.726Z,102451.84
2023-05-08T06:36:24.276Z,102461.59
2023-05-08T06:38:25.671Z,102465.41
2023-05-08T06:40:27.233Z,102461.25
2023-05-08T06:42:28.947Z,102469.69
2023-05-08T06:44:30.371Z,102472.00
2023-05-08T06:46:32.103Z,102456.88
2023-05-08T06:48:34.403Z,102473.47
2023-05-08T06:50:39.599Z,102478.22
2023-05-08T06:52:41.108Z,102480.03
2023-05-08T06:54:42.683Z,102478.66
2023-05-08T06:56:44.095Z,102437.88
2023-05-08T06:58:56.554Z,102476.38
2023-05-08T07:01:06.556Z,102461.97
2023-05-08T07:03:08.074Z,102477.91
2023-05-08T07:05:09.979Z,102462.84
2023-05-08T07:07:11.690Z,102477.44
2023-05-08T07:09:13.138Z,102471.53
2023-05-08T07:11:14.795Z,102481.56
2023-05-08T07:13:17.594Z,102476.81
2023-05-08T07:15:25.959Z,102473.88
2023-05-08T07:17:27.785Z,102472.44
2023-05-08T07:19:29.228Z,102469.16
2023-05-08T07:21:30.667Z,102478.66
2023-05-08T07:23:32.413Z,102454.97
2023-05-08T07:25:33.834Z,102470.00
2023-05-08T07:27:35.268Z,102478.09
2023-05-08T07:29:39.067Z,102480.63
2023-05-08T07:31:40.712Z,102476.13
2023-05-08T07:33:42.219Z,102479.84
2023-05-08T07:35:43.719Z,102467.41
2023-05-08T07:37:45.314Z,102462.03
2023-05-08T07:39:46.710Z,102468.53
2023-05-08T07:41:49.888Z,102469.09
2023-05-08T07:43:51.805Z,102476.03
2023-05-08T07:45:53.313Z,102465.38
2023-05-08T07:47:57.147Z,102465.94
2023-05-08T07:49:58.799Z,102471.97
2023-05-08T07:52:00.249Z,102473.31
2023-05-08T07:54:01.819Z,102476.31
2023-05-08T07:56:03.340Z,102430.88
2023-05-08T07:58:04.773Z,102483.28
2023-05-08T08:00:09.982Z,102468.00
2023-05-08T08:02:11.484Z,102473.28
2023-05-08T08:04:15.323Z,102474.31
2023-05-08T08:06:17.074Z,102476.09
2023-05-08T08:08:18.682Z,102479.13
2023-05-08T08:10:20.166Z,102454.91
2023-05-08T08:12:21.900Z,102459.72
2023-05-08T08:14:23.627Z,102472.53
2023-05-08T08:16:25.943Z,102467.31
2023-05-08T08:18:27.592Z,102475.06
2023-05-08T08:20:29.244Z,102463.13
2023-05-08T08:22:30.781Z,102470.28
2023-05-08T08:24:32.257Z,102448.31
2023-05-08T08:26:33.844Z,102448.66
2023-05-08T08:28:35.268Z,102457.13
2023-05-08T08:30:36.922Z,102442.31
2023-05-08T08:32:38.447Z,102444.63
2023-05-08T08:34:39.858Z,102460.84
2023-05-08T08:36:41.507Z,102460.56
2023-05-08T08:38:42.913Z,102457.09
2023-05-08T08:40:44.346Z,102460.34
2023-05-08T08:42:45.818Z,102459.59
2023-05-08T08:44:47.515Z,102455.97
2023-05-08T08:46:51.547Z,102460.09
2023-05-08T08:48:57.450Z,102451.50
2023-05-08T08:51:06.284Z,102459.84
2023-05-08T08:53:19.182Z,102446.09
2023-05-08T08:55:22.539Z,102436.97
2023-05-08T08:57:27.327Z,102457.09
2023-05-08T08:59:29.886Z,102455.22
2023-05-08T09:01:34.528Z,102455.28
2023-05-08T09:03:36.302Z,102440.34
2023-05-08T09:05:38.638Z,102442.53
2023-05-08T09:07:40.481Z,102452.91
2023-05-08T09:09:43.336Z,102446.25
2023-05-08T09:11:46.440Z,102434.69
2023-05-08T09:13:48.068Z,102440.19
2023-05-08T09:15:49.731Z,102449.31
2023-05-08T09:17:51.158Z,102444.94
2023-05-08T09:19:53.252Z,102448.53
2023-05-08T09:21:55.098Z,102439.00
2023-05-08T09:23:56.455Z,102442.69
2023-05-08T09:25:58.187Z,102423.25
2023-05-08T09:28:17.078Z,102397.00
2023-05-08T09:30:18.465Z,102442.56
2023-05-08T09:32:20.113Z,102442.50
2023-05-08T09:34:29.979Z,102414.16
2023-05-08T09:36:31.393Z,102428.28
2023-05-08T09:38:37.944Z,102435.31
2023-05-08T09:40:39.618Z,102424.97
2023-05-08T09:42:41.174Z,102408.38
2023-05-08T09:44:53.641Z,102427.75
2023-05-08T09:47:16.385Z,102430.56
2023-05-08T09:49:18.285Z,102423.22
2023-05-08T09:51:20.592Z,102428.13
2023-05-08T09:53:31.453Z,102428.44
2023-05-08T09:55:46.911Z,102421.28
2023-05-08T09:57:56.577Z,102423.56
2023-05-08T10:00:05.807Z,102408.94
2023-05-08T10:02:11.191Z,102393.72
2023-05-08T10:04:13.000Z,102403.34
2023-05-08T10:06:15.153Z,102418.00
2023-05-08T10:08:21.796Z,102421.63
2023-05-08T10:10:28.064Z,102408.38
2023-05-08T10:12:30.159Z,102415.63
2023-05-08T10:14:31.579Z,102416.44
2023-05-08T10:16:44.322Z,102397.03
2023-05-08T10:18:50.249Z,102416.25
2023-05-08T10:20:55.180Z,102418.53
2023-05-08T10:22:57.650Z,102424.59
2023-05-08T10:25:02.341Z,102410.59
2023-05-08T10:27:52.739Z,102415.31
2023-05-08T10:29:56.188Z,102410.84
2023-05-08T10:31:59.616Z,102408.63
2023-05-08T10:34:02.561Z,102413.78
2023-05-08T10:36:05.085Z,102402.50
2023-05-08T10:38:08.743Z,102412.75
2023-05-08T10:40:10.472Z,102411.94
2023-05-08T10:42:15.093Z,102407.78
2023-05-08T10:44:17.094Z,102409.75
2023-05-08T10:46:29.069Z,102408.91
2023-05-08T10:48:52.515Z,102406.94
2023-05-08T10:51:06.392Z,102402.06
2023-05-08T10:53:15.793Z,102404.59
2023-05-08T10:55:29.869Z,102391.19
2023-05-08T10:57:31.624Z,102398.38
2023-05-08T10:59:36.129Z,102383.91
2023-05-08T11:01:39.613Z,102390.75
2023-05-08T11:03:46.522Z,102380.44
2023-05-08T11:05:50.156Z,102388.09
2023-05-08T11:07:59.337Z,102354.34
2023-05-08T11:10:13.080Z,102397.59
2023-05-08T11:12:22.828Z,102394.88
2023-05-08T11:14:24.951Z,102375.06
2023-05-08T11:16:54.504Z,102381.91
2023-05-08T11:19:18.444Z,102383.97
2023-05-08T11:21:21.189Z,102380.31
2023-05-08T11:23:34.074Z,102379.22
2023-05-08T11:25:42.588Z,102375.81
2023-05-08T11:27:46.913Z,102374.78
2023-05-08T11:30:25.065Z,102379.88
2023-05-08T11:33:11.625Z,102377.94
2023-05-08T11:35:13.795Z,102373.88
2023-05-08T11:37:23.094Z,102371.00
2023-05-08T11:39:24.795Z,102358.53
2023-05-08T11:41:26.211Z,102365.66
2023-05-08T11:43:33.602Z,102366.25
2023-05-08T11:45:41.267Z,102371.72
2023-05-08T11:47:44.551Z,102326.69
2023-05-08T11:49:46.154Z,102356.25
2023-05-08T11:51:53.071Z,102363.16
2023-05-08T11:53:54.506Z,102370.00
2023-05-08T11:55:56.343Z,102371.34
2023-05-08T11:57:57.947Z,102342.75
2023-05-08T12:00:12.427Z,102358.44
2023-05-08T12:02:14.237Z,102359.06
2023-05-08T12:04:15.898Z,102353.94
2023-05-08T12:06:18.766Z,102353.00
2023-05-08T12:08:20.363Z,102353.06
2023-05-08T12:10:21.883Z,102351.16
2023-05-08T12:12:23.303Z,102347.91
2023-05-08T12:14:25.040Z,102331.34
2023-05-08T12:16:26.765Z,102342.41
2023-05-08T12:18:28.790Z,102340.00
2023-05-08T12:20:32.033Z,102340.53
2023-05-08T12:22:35.153Z,102323.41
2023-05-08T12:24:36.621Z,102338.56
2023-05-08T12:26:38.581Z,102337.56
2023-05-08T12:28:40.168Z,102331.22
2023-05-08T12:30:42.184Z,102334.00
2023-05-08T12:32:44.600Z,102330.72
2023-05-08T12:34:46.225Z,102328.59
2023-05-08T12:36:47.665Z,102335.09
2023-05-08T12:38:51.698Z,102337.34
2023-05-08T12:40:53.747Z,102333.34
2023-05-08T12:42:55.223Z,102331.84
2023-05-08T12:44:57.659Z,102331.28
2023-05-08T12:46:59.428Z,102333.56
2023-05-08T12:49:02.052Z,102323.22
2023-05-08T12:51:04.777Z,102317.38
2023-05-08T12:53:08.559Z,102327.28
2023-05-08T12:55:23.408Z,102318.72
2023-05-08T12:57:24.946Z,102324.91
2023-05-08T12:59:32.555Z,102301.88
2023-05-08T13:01:33.969Z,102312.75
2023-05-08T13:03:36.465Z,102307.66
2023-05-08T13:05:42.251Z,102307.16
2023-05-08T13:07:43.715Z,102313.75
2023-05-08T13:10:01.924Z,102301.13
2023-05-08T13:12:03.539Z,102306.16
2023-05-08T13:14:04.948Z,102306.81
2023-05-08T13:16:07.722Z,102290.81
2023-05-08T13:18:09.500Z,102303.97
2023-05-08T13:20:11.549Z,102300.66
2023-05-08T13:22:13.359Z,102294.16
2023-05-08T13:24:15.164Z,102294.75
2023-05-08T13:26:16.626Z,102294.28
2023-05-08T13:28:18.240Z,102289.69
2023-05-08T13:30:19.772Z,102290.00
2023-05-08T13:32:21.301Z,102289.78
2023-05-08T13:34:22.962Z,102284.63
2023-05-08T13:36:24.757Z,102284.84
2023-05-08T13:38:26.204Z,102266.06
2023-05-08T13:40:28.226Z,102270.75
2023-05-08T13:42:29.830Z,102271.06
2023-05-08T13:44:31.229Z,102268.44
2023-05-08T13:46:32.788Z,102260.56
2023-05-08T13:48:34.415Z,102276.16
2023-05-08T13:50:35.901Z,102271.81
2023-05-08T13:52:38.620Z,102275.72
2023-05-08T13:54:40.110Z,102275.66
2023-05-08T13:56:41.639Z,102272.28
2023-05-08T13:58:43.227Z,102267.63
2023-05-08T14:00:44.734Z,102259.13
2023-05-08T14:02:46.612Z,102262.56
2023-05-08T14:04:48.246Z,102276.66
2023-05-08T14:06:50.000Z,102248.53
2023-05-08T14:08:54.230Z,102264.00
2023-05-08T14:10:56.884Z,102247.38
2023-05-08T14:12:58.483Z,102257.81
2023-05-08T14:14:59.904Z,102250.16
2023-05-08T14:17:01.859Z,102256.50
2023-05-08T14:19:03.477Z,102251.75
2023-05-08T14:21:04.905Z,102248.69
2023-05-08T14:23:06.397Z,102231.94
2023-05-08T14:25:08.691Z,102251.03
2023-05-08T14:27:10.432Z,102240.38
2023-05-08T14:29:12.074Z,102247.13
2023-05-08T14:31:13.708Z,102257.50
2023-05-08T14:33:17.149Z,102233.81
2023-05-08T14:35:20.089Z,102256.16
2023-05-08T14:37:21.586Z,102237.38
2023-05-08T14:39:23.055Z,102249.28
2023-05-08T14:41:28.879Z,102257.41
2023-05-08T14:43:30.560Z,102257.09
2023-05-08T14:45:31.971Z,102253.41
2023-05-08T14:47:33.498Z,102255.84
2023-05-08T14:49:38.394Z,102233.75
2023-05-08T14:51:40.305Z,102244.38
2023-05-08T14:53:42.076Z,102232.72
2023-05-08T14:57:49.200Z,102237.28
2023-05-08T14:59:55.055Z,102246.47
2023-05-08T15:01:56.987Z,102230.22
2023-05-08T15:03:58.552Z,102245.59
2023-05-08T15:06:00.137Z,102250.31
2023-05-08T15:08:01.587Z,102236.63
2023-05-08T15:10:03.622Z,102249.09
2023-05-08T15:12:05.488Z,102231.72
2023-05-08T15:14:06.957Z,102228.88
2023-05-08T15:16:08.546Z,102238.78
2023-05-08T15:18:10.167Z,102241.63
2023-05-08T15:20:11.692Z,102239.16
2023-05-08T15:22:13.462Z,102228.25
2023-05-08T15:24:14.972Z,102233.78
2023-05-08T15:26:16.447Z,102217.53
2023-05-08T15:28:17.956Z,102234.13
2023-05-08T15:30:20.503Z,102226.22
2023-05-08T15:32:22.161Z,102236.13
2023-05-08T15:34:26.371Z,102228.00
2023-05-08T15:36:30.500Z,102228.97
2023-05-08T15:38:32.029Z,102223.28
2023-05-08T15:40:33.983Z,102224.69
2023-05-08T15:42:35.589Z,102231.28
2023-05-08T15:44:53.906Z,102226.06
2023-05-08T15:46:56.402Z,102222.88
2023-05-08T15:48:58.558Z,102223.97
2023-05-08T15:51:01.327Z,102225.56
2023-05-08T15:53:02.770Z,102220.34
2023-05-08T15:55:05.357Z,102220.44
2023-05-08T15:57:06.840Z,102201.41
2023-05-08T15:59:08.292Z,102214.97
2023-05-08T16:01:09.816Z,102198.94
2023-05-08T16:03:11.562Z,102181.66
2023-05-08T16:05:13.315Z,102174.72
2023-05-08T16:07:15.100Z,102190.88
2023-05-08T16:09:16.509Z,102206.56
2023-05-08T16:11:17.910Z,102201.25
2023-05-08T16:13:19.698Z,102202.41
2023-05-08T16:15:21.321Z,102185.91
2023-05-08T16:17:22.771Z,102183.94
2023-05-08T16:19:24.521Z,102196.50
2023-05-08T16:21:25.999Z,102182.94
2023-05-08T16:23:27.419Z,102210.25
2023-05-08T16:25:28.897Z,102200.19
2023-05-08T16:27:30.447Z,102195.78
2023-05-08T16:29:31.851Z,102194.63
2023-05-08T16:31:33.606Z,102195.47
2023-05-08T16:33:35.187Z,102184.63
2023-05-08T16:35:36.621Z,102195.19
2023-05-08T16:37:38.198Z,102185.59
2023-05-08T16:39:39.832Z,102200.81
2023-05-08T16:41:41.233Z,102188.13
2023-05-08T16:43:42.749Z,102180.88
2023-05-08T16:45:44.420Z,102200.13
2023-05-08T16:47:46.072Z,102177.00
2023-05-08T16:49:47.675Z,102177.63
2023-05-08T16:51:49.346Z,102185.66
2023-05-08T16:53:50.752Z,102197.81
2023-05-08T16:55:52.185Z,102199.00
2023-05-08T16:57:53.676Z,102193.47
2023-05-08T16:59:55.087Z,102194.84
2023-05-08T17:01:56.692Z,102196.59
2023-05-08T17:03:58.300Z,102182.38
2023-05-08T17:05:59.737Z,102197.00
2023-05-08T17:08:01.351Z,102201.56
2023-05-08T17:10:02.924Z,102179.38
2023-05-08T17:12:04.710Z,102183.78
2023-05-08T17:14:06.248Z,102200.03
2023-05-08T17:16:07.777Z,102198.72
2023-05-08T17:18:09.228Z,102199.97
2023-05-08T17:20:11.818Z,102203.84
2023-05-08T17:22:13.653Z,102197.53
2023-05-08T17:24:15.037Z,102196.69
2023-05-08T17:26:18.103Z,102200.75
2023-05-08T17:28:19.532Z,102197.22
2023-05-08T17:30:20.978Z,102193.22
2023-05-08T17:32:22.565Z,102171.16
2023-05-08T17:34:24.187Z,102189.28
2023-05-08T17:36:25.637Z,102196.06
2023-05-08T17:38:27.258Z,102192.56
2023-05-08T17:40:28.879Z,102187.25
2023-05-08T17:42:30.291Z,102187.25
2023-05-08T17:44:31.950Z,102200.31
2023-05-08T17:46:33.455Z,102176.16
2023-05-08T17:48:35.248Z,102193.47
2023-05-08T17:50:36.953Z,102183.66
2023-05-08T17:52:38.570Z,102200.56
2023-05-08T17:54:39.985Z,102196.16
2023-05-08T17:56:41.508Z,102198.59
2023-05-08T17:58:42.994Z,102190.03
2023-05-08T18:00:44.428Z,102189.47
2023-05-08T18:02:46.098Z,102190.16
2023-05-08T18:04:47.791Z,102191.84
2023-05-08T18:06:49.247Z,102211.13
2023-05-08T18:08:50.839Z,102214.06
2023-05-08T18:10:52.454Z,102210.78
2023-05-08T18:12:53.938Z,102204.03
2023-05-08T18:14:55.649Z,102212.38
2023-05-08T18:16:57.394Z,102217.34
2023-05-08T18:18:58.819Z,102218.78
2023-05-08T18:21:00.441Z,102218.75
2023-05-08T18:23:01.984Z,102217.34
2023-05-08T18:25:03.596Z,102224.25
2023-05-08T18:27:05.201Z,102205.25
2023-05-08T18:29:07.424Z,102229.63
2023-05-08T18:31:09.303Z,102206.09
2023-05-08T18:33:10.875Z,102227.50
2023-05-08T18:35:12.521Z,102221.16
2023-05-08T18:37:13.946Z,102215.66
2023-05-08T18:39:15.547Z,102233.66
2023-05-08T18:41:17.032Z,102236.72
2023-05-08T18:43:18.429Z,102247.34
2023-05-08T18:45:19.979Z,102231.28
2023-05-08T18:47:21.646Z,102222.59
2023-05-08T18:49:23.040Z,102222.69
2023-05-08T18:51:24.660Z,102231.13
2023-05-08T18:53:26.360Z,102248.13
2023-05-08T18:55:27.791Z,102255.81
2023-05-08T18:57:29.270Z,102248.16
2023-05-08T18:59:30.840Z,102253.16
2023-05-08T19:01:32.268Z,102250.50
2023-05-08T19:03:33.951Z,102208.81
2023-05-08T19:05:35.375Z,102259.09
2023-05-08T19:07:37.214Z,102244.66
2023-05-08T19:09:38.750Z,102231.56
2023-05-08T19:11:40.333Z,102228.84
2023-05-08T19:13:41.748Z,102252.16
2023-05-08T19:15:43.366Z,102235.66
2023-05-08T19:17:45.508Z,102252.63
2023-05-08T19:19:49.051Z,102250.63
2023-05-08T19:21:50.599Z,102232.66
2023-05-08T19:23:52.066Z,102264.25
2023-05-08T19:25:53.559Z,102256.75
2023-05-08T19:27:55.089Z,102256.84
2023-05-08T19:29:56.506Z,102245.91
2023-05-08T19:31:57.994Z,102255.16
2023-05-08T19:34:00.392Z,102239.97
2023-05-08T19:36:01.822Z,102251.72
2023-05-08T19:38:03.203Z,102241.66
2023-05-08T19:40:05.810Z,102256.38
2023-05-08T19:42:07.208Z,102254.16
2023-05-08T19:44:08.781Z,102254.25
2023-05-08T19:46:10.387Z,102251.72
2023-05-08T19:48:17.858Z,102250.44
2023-05-08T19:50:19.914Z,102235.09
2023-05-08T19:52:21.484Z,102252.41
2023-05-08T19:54:22.862Z,102251.34
2023-05-08T19:56:24.374Z,102234.13
2023-05-08T19:58:25.952Z,102244.03
2023-05-08T20:00:27.358Z,102245.91
2023-05-08T20:02:28.995Z,102245.34
2023-05-08T20:04:30.694Z,102244.91
2023-05-08T20:06:32.792Z,102242.59
2023-05-08T20:08:34.296Z,102227.31
2023-05-08T20:10:35.828Z,102248.56
2023-05-08T20:12:37.240Z,102245.56
2023-05-08T20:14:38.734Z,102230.03
2023-05-08T20:16:40.374Z,102249.38
2023-05-08T20:18:41.924Z,102246.53
2023-05-08T20:20:43.373Z,102248.41
2023-05-08T20:22:44.926Z,102251.19
2023-05-08T20:24:46.326Z,102243.25
2023-05-08T20:26:47.761Z,102233.97
2023-05-08T20:28:49.189Z,102243.31
2023-05-08T20:30:50.635Z,102241.53
2023-05-08T20:32:52.293Z,102086.97
2023-05-08T20:34:53.739Z,102249.16
2023-05-08T20:36:56.002Z,102246.50
2023-05-08T20:38:57.527Z,102245.38
2023-05-08T20:41:01.035Z,102226.13
2023-05-08T20:43:02.838Z,102244.44
2023-05-08T20:45:04.637Z,102244.25
2023-05-08T20:47:06.310Z,102229.31
2023-05-08T20:49:07.786Z,102242.78
2023-05-08T20:51:09.285Z,102250.47
2023-05-08T20:53:10.723Z,102243.63
2023-05-08T20:55:12.313Z,102247.22
2023-05-08T20:57:14.285Z,102234.22
2023-05-08T20:59:15.686Z,102247.03
2023-05-08T21:01:19.217Z,102253.34
2023-05-08T21:03:22.260Z,102246.44
2023-05-08T21:05:23.807Z,102245.63
2023-05-08T21:07:28.099Z,102250.91
2023-05-08T21:09:29.589Z,102232.28
2023-05-08T21:11:31.134Z,102242.28
2023-05-08T21:13:32.730Z,102241.72
2023-05-08T21:15:34.211Z,102231.31
2023-05-08T21:17:35.732Z,102245.84
2023-05-08T21:19:37.214Z,102241.09
2023-05-08T21:21:38.666Z,102237.69
2023-05-08T21:23:40.399Z,102242.03
2023-05-08T21:25:41.816Z,102241.34
2023-05-08T21:27:43.772Z,102237.47
2023-05-08T21:29:45.357Z,102238.50
2023-05-08T21:31:46.870Z,102238.59
2023-05-08T21:33:48.371Z,102234.94
2023-05-08T21:35:49.997Z,102222.19
2023-05-08T21:37:53.822Z,102229.72
2023-05-08T21:39:56.073Z,102235.19
2023-05-08T21:41:57.620Z,102238.00
2023-05-08T21:43:59.057Z,102238.94
2023-05-08T21:46:00.758Z,102216.94
2023-05-08T21:48:02.673Z,102233.19
2023-05-08T21:50:04.260Z,102222.28
2023-05-08T21:52:05.742Z,102221.78
2023-05-08T21:54:07.689Z,102241.84
2023-05-08T21:56:09.145Z,102233.53
2023-05-08T21:58:10.553Z,102240.56
2023-05-08T22:00:12.770Z,102227.91
2023-05-08T22:02:14.219Z,102245.94
2023-05-08T22:04:15.612Z,102225.38
2023-05-08T22:06:17.124Z,102245.94
2023-05-08T22:08:18.515Z,102247.91
2023-05-08T22:10:19.953Z,102240.25
2023-05-08T22:12:21.465Z,102237.44
2023-05-08T22:14:22.908Z,102241.88
2023-05-08T22:16:24.400Z,102240.59
2023-05-08T22:18:25.997Z,102229.75
2023-05-08T22:20:27.470Z,102231.22
2023-05-08T22:22:28.932Z,102243.78
2023-05-08T22:24:30.487Z,102245.78
2023-05-08T22:26:31.874Z,102227.81
2023-05-08T22:28:33.365Z,102222.97
2023-05-08T22:30:34.855Z,102233.31
2023-05-08T22:32:36.382Z,102251.44
2023-05-08T22:34:37.953Z,102236.13
2023-05-08T22:36:39.535Z,102243.84
2023-05-08T22:38:40.940Z,102243.47
2023-05-08T22:40:42.523Z,102248.03
2023-05-08T22:42:44.943Z,102230.34
2023-05-08T22:44:46.447Z,102249.47
2023-05-08T22:46:48.084Z,102248.78
2023-05-08T22:48:50.912Z,102256.13
2023-05-08T22:50:52.350Z,102250.44
2023-05-08T22:52:53.892Z,102240.25
2023-05-08T22:54:55.454Z,102254.69
2023-05-08T22:56:56.859Z,102251.97
2023-05-08T22:58:58.343Z,102228.38
2023-05-08T23:01:00.008Z,102254.22
2023-05-08T23:03:01.515Z,102249.97
2023-05-08T23:05:03.204Z,102244.16
2023-05-08T23:07:04.831Z,102243.31
2023-05-08T23:09:06.241Z,102233.50
2023-05-08T23:11:07.800Z,102248.22
2023-05-08T23:13:09.641Z,102233.19
2023-05-08T23:15:11.972Z,102248.81
2023-05-08T23:17:13.877Z,102234.09
2023-05-08T23:19:16.663Z,102243.25
2023-05-08T23:21:18.075Z,102245.81
2023-05-08T23:23:19.556Z,102231.34
2023-05-08T23:25:21.382Z,102244.72
2023-05-08T23:27:22.846Z,102243.41
2023-05-08T23:29:24.427Z,102229.47
2023-05-08T23:31:26.018Z,102226.31
2023-05-08T23:33:28.344Z,102242.72